»·PEaware :: PH-TIM KSNA-KBUR

PH-TIM :: KSNA-KBUR

FLIGHT INFORMATION

Flight Status: Arrived
Operator: Privately registered:
Netherlands
More flights under this callsign
Pilot: Tim P. (6337)
Aircraft: CESSNA 172 SKYHAWK
(C172)
More flights by this aircraft type
Origin: KSNA John Wayne-Orange Co
United States
Destination: KBUR Bob Hope-Burbank
United States
More flights between these airports :: More routes between these airports
Route: +SLI V23 POPPR SMO125R SMO SMO311R SILEX
File this flight plan on PilotEdge
Remarks: CSTP1, I-3 rating
Altitude:
(Current/Filed)
4,000ft
Speed:
(Current/Filed)
105kts
Departed: 09-Sep-18 10:23 AM
Arrived: 09-Sep-18 11:03 AM
Distance/Time
Traveled:
40nm/0:40
Distance/Time
To Go:
Arrived

Flight Plot

Page will automatically refresh every two minutes.


Map Options




Map Legend


Flown Route
Filed Route
Departure Airport
Arrival Airport
Navaid (VOR, NDB)
Fix

Horizontal Profiles

Position Reports

Time Latitude Longitude Heading Altitude Ground
Speed
09-Sep-18 09:06 33.667632 -117.870968 221 60ft 0kts
09-Sep-18 09:08 33.667053 -117.871952 221 60ft 0kts
09-Sep-18 09:09 33.667053 -117.871952 221 60ft 0kts
09-Sep-18 09:10 33.667053 -117.871952 221 60ft 0kts
09-Sep-18 09:11 33.667053 -117.871952 221 60ft 0kts
09-Sep-18 09:12 33.667053 -117.871952 221 60ft 0kts
09-Sep-18 09:13 33.667053 -117.871952 221 60ft 0kts
09-Sep-18 09:14 33.667053 -117.871952 221 60ft 0kts
09-Sep-18 09:15 33.667053 -117.871952 221 60ft 0kts
09-Sep-18 09:16 33.667053 -117.871952 221 60ft 0kts
09-Sep-18 09:17 33.667053 -117.871952 221 60ft 0kts
09-Sep-18 09:18 33.667053 -117.871952 221 60ft 0kts
09-Sep-18 09:19 33.667053 -117.871952 221 60ft 0kts
09-Sep-18 09:20 33.667053 -117.871952 221 60ft 0kts
09-Sep-18 09:21 33.667053 -117.871952 220 60ft 0kts
09-Sep-18 09:22 33.667053 -117.871952 220 60ft 0kts
09-Sep-18 09:23 33.667053 -117.871952 221 60ft 0kts
09-Sep-18 09:24 33.667053 -117.871952 221 60ft 0kts
09-Sep-18 09:25 33.667053 -117.871952 221 60ft 0kts
09-Sep-18 09:26 33.667053 -117.871952 221 60ft 0kts
09-Sep-18 09:27 33.667053 -117.871952 221 60ft 0kts
09-Sep-18 09:28 33.667053 -117.871952 221 60ft 0kts
09-Sep-18 09:29 33.667053 -117.871952 221 60ft 0kts
09-Sep-18 09:30 33.667053 -117.871952 221 60ft 0kts
09-Sep-18 09:31 33.667053 -117.871952 221 60ft 0kts
09-Sep-18 09:32 33.667053 -117.871952 221 60ft 0kts
09-Sep-18 09:33 33.667053 -117.871952 221 60ft 0kts
09-Sep-18 09:34 33.667053 -117.871952 221 60ft 0kts
09-Sep-18 09:35 33.667053 -117.871952 221 60ft 0kts
09-Sep-18 09:36 33.667053 -117.871952 221 60ft 0kts
09-Sep-18 09:37 33.667053 -117.871952 221 60ft 0kts
09-Sep-18 09:38 33.667053 -117.871952 221 60ft 0kts
09-Sep-18 09:39 33.667053 -117.871952 220 60ft 0kts
09-Sep-18 09:40 33.667053 -117.871952 221 60ft 0kts
09-Sep-18 09:41 33.667053 -117.871952 221 60ft 0kts
09-Sep-18 09:42 33.667053 -117.871952 221 60ft 0kts
09-Sep-18 09:43 33.667053 -117.871952 221 60ft 0kts
09-Sep-18 09:44 33.667053 -117.871952 221 60ft 0kts
09-Sep-18 09:45 33.667053 -117.871952 220 60ft 0kts
09-Sep-18 09:46 33.667053 -117.871952 221 60ft 0kts
09-Sep-18 09:47 33.667053 -117.871952 221 60ft 0kts
09-Sep-18 09:48 33.667053 -117.871952 221 60ft 0kts
09-Sep-18 09:49 33.667053 -117.871952 221 60ft 0kts
09-Sep-18 09:50 33.667053 -117.871952 221 60ft 0kts
09-Sep-18 09:51 33.667053 -117.871952 221 60ft 0kts
09-Sep-18 09:52 33.667053 -117.871952 221 60ft 0kts
09-Sep-18 09:53 33.667053 -117.871952 221 60ft 0kts
09-Sep-18 09:54 33.667053 -117.871952 221 60ft 0kts
09-Sep-18 09:55 33.667053 -117.871952 221 60ft 0kts
09-Sep-18 09:56 33.667053 -117.871952 221 60ft 0kts
09-Sep-18 09:57 33.667053 -117.871952 221 60ft 0kts
09-Sep-18 09:58 33.667053 -117.871952 220 60ft 0kts
09-Sep-18 09:58 33.667053 -117.871952 221 60ft 0kts
09-Sep-18 09:59 33.667053 -117.871952 220 60ft 0kts
09-Sep-18 10:01 33.667053 -117.871952 220 60ft 0kts
09-Sep-18 10:02 33.667053 -117.871952 220 60ft 0kts
09-Sep-18 10:03 33.667053 -117.871952 220 60ft 0kts
09-Sep-18 10:04 33.667053 -117.871952 220 60ft 0kts
09-Sep-18 10:05 33.667053 -117.871952 220 60ft 0kts
09-Sep-18 10:06 33.667053 -117.871952 220 60ft 0kts
09-Sep-18 10:07 33.667053 -117.871952 220 60ft 0kts
09-Sep-18 10:08 33.667053 -117.871952 220 60ft 0kts
09-Sep-18 10:09 33.667053 -117.871952 220 60ft 0kts
09-Sep-18 10:10 33.667053 -117.871952 220 60ft 0kts
09-Sep-18 10:11 33.667053 -117.871952 220 60ft 0kts
09-Sep-18 10:12 33.667053 -117.871952 220 60ft 0kts
09-Sep-18 10:13 33.667053 -117.871952 220 60ft 0kts
09-Sep-18 10:14 33.667053 -117.871952 221 60ft 0kts
09-Sep-18 10:15 33.667053 -117.871952 220 60ft 0kts
09-Sep-18 10:16 33.667053 -117.871952 221 60ft 0kts
09-Sep-18 10:17 33.667878 -117.872195 40 60ft 11kts
09-Sep-18 10:18 33.670902 -117.869063 38 60ft 14kts
09-Sep-18 10:19 33.673342 -117.867825 41 60ft 0kts
09-Sep-18 10:20 33.673341 -117.867825 42 60ft 0kts
09-Sep-18 10:21 33.675441 -117.866224 27 60ft 11kts
09-Sep-18 10:22 33.679171 -117.863863 28 60ft 16kts
09-Sep-18 10:23 33.679966 -117.863658 254 60ft 0kts
09-Sep-18 10:24 33.680073 -117.863963 296 60ft 8kts
09-Sep-18 10:25 33.665230 -117.874299 217 465ft 82kts
09-Sep-18 10:26 33.647860 -117.891936 216 1201ft 83kts
09-Sep-18 10:27 33.630036 -117.909269 216 1882ft 83kts
09-Sep-18 10:28 33.620933 -117.932585 281 2511ft 80kts
09-Sep-18 10:29 33.631639 -117.952385 350 3092ft 73kts
09-Sep-18 10:30 33.641267 -117.972821 284 3631ft 84kts
09-Sep-18 10:31 33.645078 -118.000573 280 4058ft 95kts
09-Sep-18 10:32 33.648446 -118.035862 281 4122ft 112kts
09-Sep-18 10:33 33.652153 -118.072851 279 4121ft 111kts
09-Sep-18 10:34 33.668411 -118.102068 312 4072ft 110kts
09-Sep-18 10:35 33.688330 -118.130209 312 4003ft 111kts
09-Sep-18 10:36 33.707262 -118.160573 309 4003ft 112kts
09-Sep-18 10:37 33.730453 -118.185608 325 3992ft 112kts
09-Sep-18 10:38 33.756031 -118.206300 328 4014ft 110kts
09-Sep-18 10:39 33.781641 -118.227044 329 4026ft 110kts
09-Sep-18 10:40 33.805398 -118.250046 323 4105ft 106kts
09-Sep-18 10:41 33.828662 -118.273136 325 4143ft 108kts
09-Sep-18 10:42 33.853593 -118.293668 328 4158ft 111kts
09-Sep-18 10:43 33.877559 -118.316565 322 4209ft 107kts
09-Sep-18 10:44 33.902290 -118.339446 323 4057ft 113kts
09-Sep-18 10:45 33.925025 -118.365682 318 4006ft 110kts
09-Sep-18 10:46 33.947936 -118.389747 321 3977ft 107kts
09-Sep-18 10:47 33.968513 -118.416061 321 4035ft 106kts
09-Sep-18 10:48 33.993065 -118.437506 332 4015ft 112kts
09-Sep-18 10:49 34.017220 -118.462407 313 3965ft 112kts
09-Sep-18 10:50 34.036138 -118.491317 309 4000ft 112kts
09-Sep-18 10:51 34.054717 -118.521045 312 4055ft 111kts
09-Sep-18 10:52 34.073008 -118.550712 308 4126ft 110kts
09-Sep-18 10:53 34.091398 -118.580775 309 4149ft 112kts
09-Sep-18 10:54 34.110339 -118.610477 316 4158ft 114kts
09-Sep-18 10:55 34.139397 -118.619862 353 4180ft 109kts
09-Sep-18 10:56 34.169308 -118.626801 353 4174ft 111kts
09-Sep-18 10:57 34.187849 -118.606418 75 4099ft 108kts
09-Sep-18 10:58 34.200913 -118.574804 75 3860ft 106kts
09-Sep-18 10:59 34.198905 -118.537741 84 3114ft 112kts
09-Sep-18 11:00 34.199261 -118.501972 81 2976ft 102kts
09-Sep-18 11:01 34.198809 -118.466888 86 2491ft 104kts
09-Sep-18 11:02 34.198657 -118.431382 86 1851ft 107kts
09-Sep-18 11:03 34.198306 -118.397741 85 1299ft 71kts
09-Sep-18 11:04 34.198000 -118.375709 85 950ft 61kts
09-Sep-18 11:05 34.197821 -118.360840 86 780ft 19kts
09-Sep-18 11:06 34.198639 -118.360243 17 780ft 6kts
09-Sep-18 11:07 34.199806 -118.359054 290 780ft 11kts
09-Sep-18 11:08 34.200362 -118.359507 347 780ft 0kts
09-Sep-18 11:09 34.200362 -118.359507 347 780ft 0kts
09-Sep-18 11:10 34.200362 -118.359507 347 780ft 0kts
09-Sep-18 11:11 34.200362 -118.359507 347 780ft 0kts
09-Sep-18 11:18 34.200362 -118.359507 347 780ft 0kts
09-Sep-18 11:19 34.200362 -118.359507 347 780ft 0kts

Navigation Log

Ident Type
Flight plan parsing failed, navigation log unavailable